createdAt,value
2018-08-23T00:01:07.810Z,0
2018-08-23T00:02:23.715Z,0
2018-08-23T00:03:39.679Z,0
2018-08-23T00:04:55.501Z,0
2018-08-23T00:06:11.394Z,0
2018-08-23T00:07:27.370Z,0
2018-08-23T00:08:44.242Z,0
2018-08-23T00:10:00.147Z,0
2018-08-23T00:11:16.051Z,0
2018-08-23T00:12:31.931Z,0
2018-08-23T00:13:47.838Z,0
2018-08-23T00:15:03.743Z,0
2018-08-23T00:16:19.649Z,0
2018-08-23T00:17:35.525Z,0
2018-08-23T00:18:51.490Z,0
2018-08-23T00:20:07.380Z,0
2018-08-23T00:21:23.297Z,0
2018-08-23T00:22:39.338Z,0
2018-08-23T00:23:55.209Z,0
2018-08-23T00:25:11.115Z,0
2018-08-23T00:26:27.009Z,0
2018-08-23T00:27:42.928Z,0
2018-08-23T00:28:58.852Z,0
2018-08-23T00:30:14.878Z,0
2018-08-23T00:31:31.025Z,0
2018-08-23T00:32:46.906Z,0
2018-08-23T00:34:02.854Z,0
2018-08-23T00:35:18.748Z,0
2018-08-23T00:36:34.673Z,0
2018-08-23T00:37:50.585Z,0
2018-08-23T00:39:06.501Z,0
2018-08-23T00:40:22.379Z,0
2018-08-23T00:41:38.290Z,0
2018-08-23T00:42:54.194Z,0
2018-08-23T00:44:10.069Z,0
2018-08-23T00:45:26.005Z,0
2018-08-23T00:46:42.064Z,0
2018-08-23T00:47:58.007Z,0
2018-08-23T00:49:13.954Z,0
2018-08-23T00:50:29.852Z,0
2018-08-23T00:51:45.872Z,0
2018-08-23T00:53:01.811Z,0
2018-08-23T00:54:17.799Z,0
2018-08-23T00:55:33.628Z,0
2018-08-23T00:56:49.550Z,0
2018-08-23T00:58:05.486Z,0
2018-08-23T00:59:21.383Z,0
2018-08-23T01:00:38.266Z,0
2018-08-23T01:01:54.152Z,0
2018-08-23T01:03:10.275Z,0
2018-08-23T01:04:26.382Z,0
2018-08-23T01:05:42.288Z,0
2018-08-23T01:06:58.186Z,0
2018-08-23T01:08:14.150Z,0
2018-08-23T01:09:30.042Z,0
2018-08-23T01:10:45.954Z,0
2018-08-23T01:12:01.914Z,0
2018-08-23T01:13:17.984Z,0
2018-08-23T01:14:33.908Z,0
2018-08-23T01:15:49.911Z,0
2018-08-23T01:17:05.907Z,0
2018-08-23T01:18:21.818Z,0
2018-08-23T01:19:37.719Z,0
2018-08-23T01:20:53.651Z,0
2018-08-23T01:22:09.531Z,0
2018-08-23T01:23:25.454Z,0
2018-08-23T01:24:41.477Z,0
2018-08-23T01:25:57.429Z,0
2018-08-23T01:27:13.367Z,0
2018-08-23T01:28:29.320Z,0
2018-08-23T01:29:45.248Z,0
2018-08-23T01:31:01.227Z,0
2018-08-23T01:32:17.137Z,0
2018-08-23T01:33:33.078Z,0
2018-08-23T01:34:49.008Z,0
2018-08-23T01:36:04.901Z,0
2018-08-23T01:37:20.819Z,0
2018-08-23T01:38:36.705Z,0
2018-08-23T01:39:52.648Z,0
2018-08-23T01:41:08.562Z,0
2018-08-23T01:42:24.447Z,0
2018-08-23T01:43:40.372Z,0
2018-08-23T01:44:56.285Z,0
2018-08-23T01:46:12.171Z,0
2018-08-23T01:47:28.100Z,0
2018-08-23T01:48:44.053Z,0
2018-08-23T01:49:59.946Z,0
2018-08-23T01:51:15.898Z,0
2018-08-23T01:52:31.845Z,0
2018-08-23T01:53:47.805Z,0
2018-08-23T01:55:03.756Z,0
2018-08-23T01:56:19.816Z,0
2018-08-23T01:57:35.713Z,0
2018-08-23T01:58:51.718Z,0
2018-08-23T02:00:07.627Z,0
2018-08-23T02:01:23.596Z,0
2018-08-23T02:02:39.510Z,0
2018-08-23T02:03:55.463Z,0
2018-08-23T02:05:11.343Z,0
2018-08-23T02:06:27.348Z,0
2018-08-23T02:07:43.360Z,0
2018-08-23T02:08:59.285Z,0
2018-08-23T02:10:15.162Z,0
2018-08-23T02:11:31.077Z,0
2018-08-23T02:12:46.953Z,0
2018-08-23T02:14:02.814Z,0
2018-08-23T02:15:18.757Z,0
2018-08-23T02:16:34.657Z,0
2018-08-23T02:17:50.614Z,0
2018-08-23T02:19:06.514Z,0
2018-08-23T02:20:22.450Z,0
2018-08-23T02:21:38.323Z,0
2018-08-23T02:22:54.239Z,0
2018-08-23T02:24:10.189Z,0
2018-08-23T02:25:26.123Z,0
2018-08-23T02:26:42.049Z,0
2018-08-23T02:27:57.959Z,0
2018-08-23T02:29:14.863Z,0
2018-08-23T02:30:30.751Z,0
2018-08-23T02:31:46.694Z,0
2018-08-23T02:33:02.561Z,0
2018-08-23T02:34:18.599Z,0
2018-08-23T02:35:34.494Z,0
2018-08-23T02:36:50.447Z,0
2018-08-23T02:38:06.402Z,0
2018-08-23T02:39:22.263Z,0
2018-08-23T02:40:38.155Z,0
2018-08-23T02:41:54.161Z,0
2018-08-23T02:43:10.062Z,0
2018-08-23T02:44:26.051Z,0
2018-08-23T02:45:41.946Z,0
2018-08-23T02:46:57.941Z,0
2018-08-23T02:48:13.972Z,0
2018-08-23T02:49:29.921Z,0
2018-08-23T02:50:45.837Z,0
2018-08-23T02:52:01.796Z,0
2018-08-23T02:53:17.871Z,0
2018-08-23T02:54:33.776Z,0
2018-08-23T02:55:49.734Z,0
2018-08-23T02:57:05.703Z,0
2018-08-23T02:58:21.614Z,0
2018-08-23T02:59:37.644Z,0
2018-08-23T03:00:53.687Z,0
2018-08-23T03:02:09.810Z,0
2018-08-23T03:03:25.804Z,0
2018-08-23T03:04:41.740Z,0
2018-08-23T03:05:57.773Z,0
2018-08-23T03:07:13.779Z,0
2018-08-23T03:08:29.710Z,0
2018-08-23T03:09:45.652Z,0
2018-08-23T03:11:01.539Z,0
2018-08-23T03:12:17.473Z,0
2018-08-23T03:13:33.390Z,0
2018-08-23T03:14:49.385Z,0
2018-08-23T03:16:05.364Z,0
2018-08-23T03:17:21.259Z,0
2018-08-23T03:18:38.232Z,0
2018-08-23T03:19:54.128Z,0
2018-08-23T03:21:10.042Z,0
2018-08-23T03:22:25.963Z,0
2018-08-23T03:23:41.839Z,0
2018-08-23T03:24:57.779Z,0
2018-08-23T03:26:13.715Z,0
2018-08-23T03:27:29.748Z,0
2018-08-23T03:28:45.641Z,0
2018-08-23T03:30:01.572Z,0
2018-08-23T03:31:17.442Z,0
2018-08-23T03:32:33.373Z,0
2018-08-23T03:33:49.257Z,0
2018-08-23T03:35:05.193Z,0
2018-08-23T03:36:21.141Z,0
2018-08-23T03:37:37.092Z,0
2018-08-23T03:38:53.023Z,0
2018-08-23T03:40:08.928Z,0
2018-08-23T03:41:24.835Z,0
2018-08-23T03:42:40.700Z,0
2018-08-23T03:43:56.715Z,0
2018-08-23T03:45:12.605Z,0
2018-08-23T03:46:28.545Z,0
2018-08-23T03:47:44.465Z,0
2018-08-23T03:49:00.396Z,0
2018-08-23T03:50:16.358Z,0
2018-08-23T03:51:32.267Z,0
2018-08-23T03:52:48.169Z,0
2018-08-23T03:54:04.116Z,0
2018-08-23T03:55:20.243Z,0
2018-08-23T03:56:36.274Z,0
2018-08-23T03:57:52.195Z,0
2018-08-23T03:59:08.075Z,0
2018-08-23T04:00:23.986Z,0
2018-08-23T04:01:39.976Z,0
2018-08-23T04:02:55.900Z,0
2018-08-23T04:04:11.857Z,1
2018-08-23T04:05:27.841Z,0
2018-08-23T04:06:43.794Z,1
2018-08-23T04:07:59.674Z,1
2018-08-23T04:09:15.680Z,1
2018-08-23T04:10:31.637Z,1
2018-08-23T04:11:47.522Z,2
2018-08-23T04:13:03.462Z,2
2018-08-23T04:14:19.390Z,2
2018-08-23T04:15:36.276Z,3
2018-08-23T04:16:52.204Z,3
2018-08-23T04:18:08.101Z,4
2018-08-23T04:19:24.005Z,5
2018-08-23T04:20:39.966Z,5
2018-08-23T04:21:55.986Z,6
2018-08-23T04:23:11.886Z,7
2018-08-23T04:24:27.816Z,8
2018-08-23T04:25:43.729Z,9
2018-08-23T04:26:59.662Z,11
2018-08-23T04:28:15.590Z,13
2018-08-23T04:29:31.473Z,14
2018-08-23T04:30:47.387Z,15
2018-08-23T04:32:03.350Z,17
2018-08-23T04:33:19.349Z,20
2018-08-23T04:34:35.349Z,21
2018-08-23T04:35:51.297Z,24
2018-08-23T04:37:07.279Z,27
2018-08-23T04:38:23.189Z,29
2018-08-23T04:39:39.255Z,31
2018-08-23T04:40:55.254Z,33
2018-08-23T04:42:11.172Z,37
2018-08-23T04:43:27.132Z,39
2018-08-23T04:44:43.030Z,42
2018-08-23T04:45:58.930Z,46
2018-08-23T04:47:14.828Z,46
2018-08-23T04:48:30.840Z,48
2018-08-23T04:49:46.788Z,50
2018-08-23T04:51:02.678Z,53
2018-08-23T04:52:18.645Z,55
2018-08-23T04:53:34.583Z,56
2018-08-23T04:54:50.638Z,60
2018-08-23T04:56:06.546Z,61
2018-08-23T04:57:22.567Z,65
2018-08-23T04:58:38.475Z,67
2018-08-23T04:59:54.404Z,70
2018-08-23T05:01:10.475Z,73
2018-08-23T05:02:26.478Z,76
2018-08-23T05:03:42.411Z,80
2018-08-23T05:04:58.336Z,82
2018-08-23T05:06:14.312Z,84
2018-08-23T05:07:30.196Z,86
2018-08-23T05:08:46.199Z,88
2018-08-23T05:10:02.122Z,90
2018-08-23T05:11:19.233Z,91
2018-08-23T05:12:35.170Z,93
2018-08-23T05:13:51.100Z,94
2018-08-23T05:15:07.033Z,95
2018-08-23T05:16:22.947Z,97
2018-08-23T05:17:38.859Z,99
2018-08-23T05:18:54.759Z,100
2018-08-23T05:21:52.394Z,104
2018-08-23T05:23:08.319Z,105
2018-08-23T05:24:24.288Z,107
2018-08-23T05:25:40.317Z,108
2018-08-23T05:26:56.219Z,110
2018-08-23T05:28:12.323Z,111
2018-08-23T05:29:28.481Z,112
2018-08-23T05:30:44.599Z,115
2018-08-23T05:32:00.511Z,116
2018-08-23T05:33:16.412Z,120
2018-08-23T05:34:32.351Z,123
2018-08-23T05:35:48.251Z,126
2018-08-23T05:37:04.172Z,130
2018-08-23T05:38:20.194Z,134
2018-08-23T05:39:36.169Z,140
2018-08-23T05:40:52.053Z,143
2018-08-23T05:42:07.980Z,149
2018-08-23T05:43:24.017Z,154
2018-08-23T05:44:39.958Z,159
2018-08-23T05:45:55.879Z,163
2018-08-23T05:47:11.779Z,169
2018-08-23T05:48:27.661Z,173
2018-08-23T05:49:43.576Z,180
2018-08-23T05:50:59.650Z,184
2018-08-23T05:52:15.697Z,188
2018-08-23T05:53:31.759Z,195
2018-08-23T05:54:47.654Z,197
2018-08-23T05:56:03.577Z,204
2018-08-23T05:57:19.568Z,210
2018-08-23T05:58:35.454Z,215
2018-08-23T05:59:51.372Z,221
2018-08-23T06:01:07.305Z,227
2018-08-23T06:02:23.238Z,233
2018-08-23T06:03:39.194Z,239
2018-08-23T06:04:55.193Z,245
2018-08-23T06:06:11.147Z,252
2018-08-23T06:07:27.095Z,260
2018-08-23T06:08:43.060Z,270
2018-08-23T06:09:58.963Z,280
2018-08-23T06:11:14.928Z,285
2018-08-23T06:12:30.843Z,293
2018-08-23T06:13:46.726Z,301
2018-08-23T06:15:02.683Z,308
2018-08-23T06:16:18.607Z,315
2018-08-23T06:17:34.580Z,320
2018-08-23T06:18:50.630Z,327
2018-08-23T06:20:06.679Z,334
2018-08-23T06:21:22.548Z,340
2018-08-23T06:22:38.489Z,345
2018-08-23T06:23:54.455Z,350
2018-08-23T06:25:10.407Z,358
2018-08-23T06:26:26.301Z,365
2018-08-23T06:27:42.257Z,376
2018-08-23T06:28:58.184Z,386
2018-08-23T06:30:14.096Z,393
2018-08-23T06:31:30.126Z,401
2018-08-23T06:32:46.107Z,408
2018-08-23T06:34:02.017Z,419
2018-08-23T06:35:17.988Z,431
2018-08-23T06:36:33.884Z,444
2018-08-23T06:37:49.771Z,462
2018-08-23T06:39:05.684Z,481
2018-08-23T06:40:21.628Z,505
2018-08-23T06:41:37.578Z,515
2018-08-23T06:42:53.480Z,528
2018-08-23T06:44:09.384Z,539
2018-08-23T06:45:25.290Z,545
2018-08-23T06:46:41.200Z,553
2018-08-23T06:47:57.207Z,553
2018-08-23T06:49:13.092Z,553
2018-08-23T06:50:29.037Z,568
2018-08-23T06:51:44.925Z,566
2018-08-23T06:53:00.837Z,582
2018-08-23T06:54:16.720Z,600
2018-08-23T06:55:32.640Z,620
2018-08-23T06:56:48.538Z,651
2018-08-23T06:58:04.459Z,667
2018-08-23T06:59:20.411Z,679
2018-08-23T07:00:36.348Z,691
2018-08-23T07:01:52.264Z,696
2018-08-23T07:03:08.262Z,700
2018-08-23T07:04:24.221Z,707
2018-08-23T07:05:40.126Z,719
2018-08-23T07:06:56.156Z,736
2018-08-23T07:08:12.060Z,758
2018-08-23T07:09:27.990Z,775
2018-08-23T07:10:43.875Z,784
2018-08-23T07:11:59.826Z,787
2018-08-23T07:13:15.740Z,812
2018-08-23T07:14:31.660Z,824
2018-08-23T07:15:47.722Z,846
2018-08-23T07:17:03.689Z,865
2018-08-23T07:18:19.652Z,883
2018-08-23T07:19:35.546Z,892
2018-08-23T07:20:51.454Z,910
2018-08-23T07:22:07.360Z,914
2018-08-23T07:23:23.355Z,923
2018-08-23T07:24:39.310Z,944
2018-08-23T07:25:55.225Z,972
2018-08-23T07:27:11.186Z,996
2018-08-23T07:28:27.100Z,1035
2018-08-23T07:29:43.064Z,1059
2018-08-23T07:30:58.894Z,1093
2018-08-23T07:32:14.850Z,1102
2018-08-23T07:33:30.744Z,1109
2018-08-23T07:34:46.622Z,1131
2018-08-23T07:36:02.554Z,1164
2018-08-23T07:37:18.494Z,1186
2018-08-23T07:38:34.422Z,1204
2018-08-23T07:39:50.315Z,1221
2018-08-23T07:41:06.208Z,1252
2018-08-23T07:42:22.151Z,1276
2018-08-23T07:43:38.160Z,1349
2018-08-23T07:44:55.061Z,1343
2018-08-23T07:46:10.961Z,1325
2018-08-23T07:47:26.930Z,1329
2018-08-23T07:48:43.054Z,1336
2018-08-23T07:49:58.868Z,1359
2018-08-23T07:51:14.825Z,1392
2018-08-23T07:52:30.875Z,1446
2018-08-23T07:53:46.749Z,1509
2018-08-23T07:55:02.645Z,1645
2018-08-23T07:56:18.552Z,1595
2018-08-23T07:57:34.561Z,1649
2018-08-23T07:58:50.505Z,1790
2018-08-23T08:00:06.433Z,2312
2018-08-23T08:01:22.348Z,2363
2018-08-23T08:02:38.285Z,2444
2018-08-23T08:03:54.206Z,2459
2018-08-23T08:05:10.116Z,2490
2018-08-23T08:06:27.060Z,2466
2018-08-23T08:07:43.005Z,2424
2018-08-23T08:08:58.945Z,2411
2018-08-23T08:10:14.844Z,2410
2018-08-23T08:11:30.809Z,2371
2018-08-23T08:12:46.840Z,2354
2018-08-23T08:14:02.754Z,2286
2018-08-23T08:15:18.919Z,2296
2018-08-23T08:16:34.716Z,2279
2018-08-23T08:17:50.670Z,2334
2018-08-23T08:19:07.577Z,2347
2018-08-23T08:20:23.480Z,2393
2018-08-23T08:21:39.413Z,2323
2018-08-23T08:22:55.394Z,2334
2018-08-23T08:24:11.292Z,2382
2018-08-23T08:25:27.197Z,1978
2018-08-23T08:26:43.111Z,1957
2018-08-23T08:27:59.060Z,2036
2018-08-23T08:29:14.969Z,2058
2018-08-23T08:30:30.978Z,1863
2018-08-23T08:31:47.021Z,1971
2018-08-23T08:33:02.972Z,2173
2018-08-23T08:34:18.895Z,2019
2018-08-23T08:35:34.817Z,2265
2018-08-23T08:36:50.756Z,2384
2018-08-23T08:38:06.749Z,2386
2018-08-23T08:39:22.826Z,2446
2018-08-23T08:40:38.765Z,2491
2018-08-23T08:41:54.793Z,2607
2018-08-23T08:43:10.665Z,2609
2018-08-23T08:44:26.727Z,2375
2018-08-23T08:45:42.659Z,2355
2018-08-23T08:46:58.581Z,2227
2018-08-23T08:48:14.498Z,2247
2018-08-23T08:49:30.482Z,2362
2018-08-23T08:50:46.371Z,2439
2018-08-23T08:52:02.263Z,2408
2018-08-23T08:53:18.191Z,2283
2018-08-23T08:54:34.190Z,2176
2018-08-23T08:55:50.111Z,2081
2018-08-23T08:57:06.058Z,2018
2018-08-23T08:58:21.914Z,1968
2018-08-23T08:59:37.921Z,1954
2018-08-23T09:00:53.903Z,1904
2018-08-23T09:02:09.827Z,1920
2018-08-23T09:03:25.730Z,1938
2018-08-23T09:04:41.710Z,2076
2018-08-23T09:05:57.653Z,2110
2018-08-23T09:07:13.541Z,2158
2018-08-23T09:08:29.394Z,2103
2018-08-23T09:09:45.373Z,2108
2018-08-23T09:11:01.263Z,2261
2018-08-23T09:12:17.399Z,2491
2018-08-23T09:13:33.319Z,2445
2018-08-23T09:14:49.371Z,2536
2018-08-23T09:16:05.395Z,2386
2018-08-23T09:17:21.325Z,2208
2018-08-23T09:18:37.348Z,2266
2018-08-23T09:19:53.192Z,2250
2018-08-23T09:21:09.149Z,2376
2018-08-23T09:22:25.091Z,2592
2018-08-23T09:23:41.163Z,2647
2018-08-23T09:24:57.076Z,2613
2018-08-23T09:26:13.041Z,2533
2018-08-23T09:27:29.065Z,2595
2018-08-23T09:28:45.022Z,2830
2018-08-23T09:30:00.938Z,2806
2018-08-23T09:31:16.889Z,2776
2018-08-23T09:32:32.919Z,2829
2018-08-23T09:33:48.831Z,2890
2018-08-23T09:35:04.897Z,2943
2018-08-23T09:36:20.839Z,2597
2018-08-23T09:37:36.795Z,2455
2018-08-23T09:38:52.715Z,2481
2018-08-23T09:40:08.612Z,2509
2018-08-23T09:41:24.578Z,2512
2018-08-23T09:42:40.519Z,2409
2018-08-23T09:43:56.427Z,2467
2018-08-23T09:45:12.356Z,2498
2018-08-23T09:46:28.286Z,2755
2018-08-23T09:47:44.260Z,3079
2018-08-23T09:49:00.238Z,3124
2018-08-23T09:50:16.365Z,3016
2018-08-23T09:51:32.299Z,2569
2018-08-23T09:52:48.243Z,2497
2018-08-23T09:54:04.189Z,2501
2018-08-23T09:55:20.103Z,2498
2018-08-23T09:56:36.082Z,2493
2018-08-23T09:57:52.000Z,2524
2018-08-23T09:59:07.936Z,2768
2018-08-23T10:00:23.880Z,3112
2018-08-23T10:01:39.776Z,3151
2018-08-23T10:02:55.747Z,2953
2018-08-23T10:04:11.682Z,3110
2018-08-23T10:05:27.543Z,3149
2018-08-23T10:06:43.565Z,3208
2018-08-23T10:07:59.433Z,3230
2018-08-23T10:09:15.355Z,3298
2018-08-23T10:10:31.369Z,3320
2018-08-23T10:11:47.322Z,3239
2018-08-23T10:13:03.181Z,3130
2018-08-23T10:14:19.113Z,3056
2018-08-23T10:15:35.064Z,2907
2018-08-23T10:16:51.062Z,3148
2018-08-23T10:18:06.972Z,3188
2018-08-23T10:19:22.919Z,3174
2018-08-23T10:20:38.858Z,3199
2018-08-23T10:21:54.797Z,3091
2018-08-23T10:23:10.826Z,3155
2018-08-23T10:24:26.795Z,3268
2018-08-23T10:25:42.701Z,3012
2018-08-23T10:26:58.652Z,2969
2018-08-23T10:28:14.585Z,3034
2018-08-23T10:29:30.484Z,3161
2018-08-23T10:30:46.417Z,2936
2018-08-23T10:32:02.379Z,3163
2018-08-23T10:33:18.230Z,3380
2018-08-23T10:34:34.145Z,3359
2018-08-23T10:35:50.083Z,3296
2018-08-23T10:37:06.031Z,3348
2018-08-23T10:38:22.051Z,2895
2018-08-23T10:39:37.995Z,2974
2018-08-23T10:40:53.931Z,2799
2018-08-23T10:42:09.995Z,3148
2018-08-23T10:43:25.896Z,3145
2018-08-23T10:44:41.941Z,3030
2018-08-23T10:45:57.909Z,3126
2018-08-23T10:47:13.845Z,3178
2018-08-23T10:48:29.796Z,3189
2018-08-23T10:49:45.828Z,3015
2018-08-23T10:51:01.784Z,2721
2018-08-23T10:52:17.728Z,2797
2018-08-23T10:53:33.695Z,2740
2018-08-23T10:54:49.636Z,2807
2018-08-23T10:56:06.539Z,2949
2018-08-23T10:57:22.521Z,2902
2018-08-23T10:58:38.455Z,2710
2018-08-23T10:59:54.425Z,2845
2018-08-23T11:01:10.378Z,2663
2018-08-23T11:02:26.307Z,2652
2018-08-23T11:03:42.223Z,2596
2018-08-23T11:04:58.138Z,2877
2018-08-23T11:06:14.060Z,2364
2018-08-23T11:07:29.915Z,2829
2018-08-23T11:08:45.894Z,2655
2018-08-23T11:10:01.782Z,2147
2018-08-23T11:11:17.695Z,1875
2018-08-23T11:12:34.445Z,1859
2018-08-23T11:13:50.383Z,1824
2018-08-23T11:15:06.271Z,1793
2018-08-23T11:16:22.213Z,1794
2018-08-23T11:17:38.117Z,1811
2018-08-23T11:18:54.072Z,1826
2018-08-23T11:20:09.987Z,1856
2018-08-23T11:21:26.012Z,1889
2018-08-23T11:22:42.000Z,1973
2018-08-23T11:23:57.910Z,2030
2018-08-23T11:25:13.813Z,2148
2018-08-23T11:26:29.922Z,2320
2018-08-23T11:27:45.854Z,2569
2018-08-23T11:29:01.781Z,2642
2018-08-23T11:30:17.715Z,2706
2018-08-23T11:31:33.729Z,2953
2018-08-23T11:32:49.679Z,3015
2018-08-23T11:34:05.620Z,3492
2018-08-23T11:35:21.617Z,3449
2018-08-23T11:36:37.536Z,3019
2018-08-23T11:37:53.487Z,2976
2018-08-23T11:39:09.495Z,3320
2018-08-23T11:40:25.356Z,3274
2018-08-23T11:41:41.254Z,3214
2018-08-23T11:42:57.140Z,3157
2018-08-23T11:44:13.195Z,3127
2018-08-23T11:45:29.084Z,3144
2018-08-23T11:46:45.027Z,3147
2018-08-23T11:48:00.955Z,3139
2018-08-23T11:49:16.905Z,3149
2018-08-23T11:50:32.831Z,3101
2018-08-23T11:51:48.741Z,3067
2018-08-23T11:53:04.917Z,3050
2018-08-23T11:54:20.721Z,3052
2018-08-23T11:55:36.686Z,3043
2018-08-23T11:56:52.570Z,3051
2018-08-23T11:58:08.577Z,3063
2018-08-23T11:59:24.465Z,3043
2018-08-23T12:00:40.400Z,3016
2018-08-23T12:01:56.323Z,3014
2018-08-23T12:03:12.239Z,2985
2018-08-23T12:04:28.163Z,3019
2018-08-23T12:05:44.101Z,3008
2018-08-23T12:07:00.033Z,3022
2018-08-23T12:08:15.925Z,3019
2018-08-23T12:09:31.850Z,3024
2018-08-23T12:10:47.754Z,3032
2018-08-23T12:12:03.656Z,3031
2018-08-23T12:13:19.549Z,3003
2018-08-23T12:14:35.482Z,2985
2018-08-23T12:15:51.432Z,3015
2018-08-23T12:17:07.427Z,3014
2018-08-23T12:18:23.499Z,2994
2018-08-23T12:19:39.438Z,2979
2018-08-23T12:20:55.328Z,2973
2018-08-23T12:22:11.266Z,2976
2018-08-23T12:23:27.168Z,2979
2018-08-23T12:24:43.124Z,2976
2018-08-23T12:25:59.160Z,2979
2018-08-23T12:27:14.950Z,2989
2018-08-23T12:28:30.881Z,2962
2018-08-23T12:29:46.853Z,2988
2018-08-23T12:31:02.875Z,2976
2018-08-23T12:32:18.804Z,2989
2018-08-23T12:33:34.768Z,2971
2018-08-23T12:34:50.802Z,2964
2018-08-23T12:36:06.668Z,2976
2018-08-23T12:37:22.663Z,3012
2018-08-23T12:38:38.695Z,2998
2018-08-23T12:39:54.620Z,2986
2018-08-23T12:41:10.560Z,2991
2018-08-23T12:42:26.497Z,3026
2018-08-23T12:43:42.415Z,3064
2018-08-23T12:44:58.346Z,3066
2018-08-23T12:46:14.276Z,3084
2018-08-23T12:47:30.205Z,3076
2018-08-23T12:48:46.150Z,3042
2018-08-23T12:50:02.114Z,3102
2018-08-23T12:51:18.066Z,3095
2018-08-23T12:52:34.064Z,3121
2018-08-23T12:53:50.001Z,3142
2018-08-23T12:55:05.949Z,3151
2018-08-23T12:56:21.947Z,3166
2018-08-23T12:57:37.802Z,3160
2018-08-23T12:58:53.748Z,3166
2018-08-23T13:00:09.724Z,3138
2018-08-23T13:01:25.775Z,3091
2018-08-23T13:02:41.760Z,3123
2018-08-23T13:03:57.640Z,3125
2018-08-23T13:05:13.666Z,3119
2018-08-23T13:06:29.661Z,3151
2018-08-23T13:07:45.520Z,3150
2018-08-23T13:09:01.640Z,3146
2018-08-23T13:10:17.538Z,3134
2018-08-23T13:11:33.463Z,3144
2018-08-23T13:12:49.358Z,3197
2018-08-23T13:14:05.326Z,3208
2018-08-23T13:15:21.253Z,3248
2018-08-23T13:16:37.161Z,3270
2018-08-23T13:17:53.221Z,3282
2018-08-23T13:19:09.143Z,3282
2018-08-23T13:20:25.084Z,3275
2018-08-23T13:21:41.024Z,3164
2018-08-23T13:22:56.964Z,3211
2018-08-23T13:24:12.887Z,3188
2018-08-23T13:25:28.844Z,3163
2018-08-23T13:26:44.920Z,3146
2018-08-23T13:28:00.827Z,3120
2018-08-23T13:29:16.729Z,3101
2018-08-23T13:30:32.661Z,3053
2018-08-23T13:31:48.576Z,2937
2018-08-23T13:33:04.455Z,2029
2018-08-23T13:34:21.394Z,1504
2018-08-23T13:35:37.390Z,1559
2018-08-23T13:36:53.327Z,1684
2018-08-23T13:38:09.279Z,2279
2018-08-23T13:39:25.213Z,2556
2018-08-23T13:40:41.171Z,3062
2018-08-23T13:41:57.273Z,3129
2018-08-23T13:43:13.093Z,3180
2018-08-23T13:44:29.027Z,3255
2018-08-23T13:45:44.978Z,2938
2018-08-23T13:47:00.873Z,3140
2018-08-23T13:48:16.886Z,3285
2018-08-23T13:49:32.789Z,3255
2018-08-23T13:50:48.790Z,2996
2018-08-23T13:52:04.747Z,3077
2018-08-23T13:53:20.655Z,2833
2018-08-23T13:54:36.626Z,2424
2018-08-23T13:55:52.559Z,3353
2018-08-23T13:57:08.423Z,3285
2018-08-23T13:58:24.388Z,3264
2018-08-23T13:59:40.308Z,3275
2018-08-23T14:00:56.259Z,3250
2018-08-23T14:02:12.293Z,3205
2018-08-23T14:03:28.137Z,3154
2018-08-23T14:04:45.038Z,3202
2018-08-23T14:06:01.043Z,3240
2018-08-23T14:07:17.048Z,3239
2018-08-23T14:08:32.933Z,2641
2018-08-23T14:09:48.847Z,2004
2018-08-23T14:11:04.772Z,1904
2018-08-23T14:12:20.670Z,1895
2018-08-23T14:13:36.625Z,1859
2018-08-23T14:14:52.511Z,2671
2018-08-23T14:16:08.383Z,2700
2018-08-23T14:17:24.501Z,2170
2018-08-23T14:18:40.384Z,1212
2018-08-23T14:19:56.308Z,987
2018-08-23T14:21:12.260Z,828
2018-08-23T14:22:28.183Z,717
2018-08-23T14:23:44.113Z,663
2018-08-23T14:25:00.017Z,596
2018-08-23T14:26:15.941Z,524
2018-08-23T14:27:32.823Z,503
2018-08-23T14:28:48.861Z,470
2018-08-23T14:30:04.802Z,443
2018-08-23T14:31:20.754Z,411
2018-08-23T14:32:36.652Z,383
2018-08-23T14:33:52.588Z,354
2018-08-23T14:35:08.567Z,323
2018-08-23T14:36:24.508Z,303
2018-08-23T14:37:40.420Z,286
2018-08-23T14:38:56.387Z,271
2018-08-23T14:40:12.294Z,255
2018-08-23T14:41:28.205Z,240
2018-08-23T14:42:44.140Z,224
2018-08-23T14:44:00.163Z,207
2018-08-23T14:45:16.108Z,201
2018-08-23T14:46:32.085Z,204
2018-08-23T14:47:48.025Z,216
2018-08-23T14:49:04.004Z,234
2018-08-23T14:50:19.968Z,249
2018-08-23T14:51:35.906Z,265
2018-08-23T14:52:51.860Z,287
2018-08-23T14:54:07.843Z,310
2018-08-23T14:55:23.804Z,334
2018-08-23T14:56:39.784Z,357
2018-08-23T14:57:55.775Z,379
2018-08-23T14:59:11.788Z,365
2018-08-23T15:00:27.706Z,354
2018-08-23T15:01:43.686Z,311
2018-08-23T15:02:59.604Z,287
2018-08-23T15:04:15.515Z,282
2018-08-23T15:05:31.468Z,284
2018-08-23T15:06:47.368Z,284
2018-08-23T15:08:03.298Z,285
2018-08-23T15:09:19.213Z,283
2018-08-23T15:10:35.146Z,276
2018-08-23T15:11:51.090Z,272
2018-08-23T15:13:06.989Z,268
2018-08-23T15:14:22.931Z,253
2018-08-23T15:15:38.886Z,231
2018-08-23T15:16:54.801Z,209
2018-08-23T15:18:10.724Z,187
2018-08-23T15:19:26.701Z,163
2018-08-23T15:20:42.691Z,140
2018-08-23T15:21:58.867Z,116
2018-08-23T15:23:14.785Z,93
2018-08-23T15:24:30.725Z,75
2018-08-23T15:25:46.648Z,64
2018-08-23T15:27:02.733Z,61
2018-08-23T15:28:18.554Z,58
2018-08-23T15:29:34.593Z,57
2018-08-23T15:30:50.506Z,52
2018-08-23T15:32:06.445Z,46
2018-08-23T15:33:22.366Z,52
2018-08-23T15:34:38.240Z,60
2018-08-23T15:35:54.188Z,68
2018-08-23T15:37:10.156Z,76
2018-08-23T15:38:26.133Z,89
2018-08-23T15:39:42.012Z,92
2018-08-23T15:40:58.008Z,96
2018-08-23T15:42:13.959Z,100
2018-08-23T15:43:29.960Z,103
2018-08-23T15:44:45.947Z,105
2018-08-23T15:46:01.888Z,110
2018-08-23T15:47:17.810Z,112
2018-08-23T15:48:33.805Z,111
2018-08-23T15:49:49.754Z,109
2018-08-23T15:51:05.842Z,110
2018-08-23T15:52:21.770Z,113
2018-08-23T15:53:37.734Z,120
2018-08-23T15:54:53.796Z,130
2018-08-23T15:56:09.772Z,132
2018-08-23T15:57:25.618Z,136
2018-08-23T15:58:41.539Z,130
2018-08-23T15:59:57.494Z,128
2018-08-23T16:01:13.563Z,132
2018-08-23T16:02:29.565Z,131
2018-08-23T16:03:45.527Z,129
2018-08-23T16:05:02.511Z,126
2018-08-23T16:06:18.452Z,123
2018-08-23T16:07:34.464Z,122
2018-08-23T16:08:50.390Z,121
2018-08-23T16:10:06.464Z,118
2018-08-23T16:11:22.364Z,117
2018-08-23T16:12:38.310Z,118
2018-08-23T16:13:54.280Z,114
2018-08-23T16:15:10.239Z,113
2018-08-23T16:16:26.174Z,112
2018-08-23T16:17:42.102Z,110
2018-08-23T16:18:58.056Z,109
2018-08-23T16:20:14.038Z,107
2018-08-23T16:21:30.077Z,107
2018-08-23T16:22:46.097Z,106
2018-08-23T16:24:01.999Z,106
2018-08-23T16:25:17.939Z,106
2018-08-23T16:26:33.920Z,106
2018-08-23T16:27:49.887Z,104
2018-08-23T16:29:05.965Z,104
2018-08-23T16:30:21.921Z,104
2018-08-23T16:31:38.024Z,103
2018-08-23T16:32:53.964Z,105
2018-08-23T16:34:09.872Z,106
2018-08-23T16:35:25.829Z,106
2018-08-23T16:36:41.780Z,108
2018-08-23T16:37:57.722Z,109
2018-08-23T16:39:13.670Z,111
2018-08-23T16:40:29.598Z,113
2018-08-23T16:41:45.539Z,116
2018-08-23T16:43:01.504Z,117
2018-08-23T16:44:17.387Z,120
2018-08-23T16:45:33.295Z,121
2018-08-23T16:46:49.272Z,122
2018-08-23T16:48:05.263Z,125
2018-08-23T16:49:21.268Z,126
2018-08-23T16:50:37.258Z,129
2018-08-23T16:51:53.244Z,130
2018-08-23T16:53:09.274Z,131
2018-08-23T16:54:25.233Z,133
2018-08-23T16:55:41.186Z,135
2018-08-23T16:56:57.205Z,138
2018-08-23T16:59:53.658Z,140
2018-08-23T17:01:09.654Z,145
2018-08-23T17:02:25.644Z,148
2018-08-23T17:03:41.565Z,150
2018-08-23T17:04:57.508Z,152
2018-08-23T17:06:13.438Z,155
2018-08-23T17:07:29.422Z,157
2018-08-23T17:08:45.373Z,159
2018-08-23T17:10:01.425Z,160
2018-08-23T17:11:17.330Z,162
2018-08-23T17:12:33.317Z,164
2018-08-23T17:13:49.273Z,165
2018-08-23T17:15:05.243Z,167
2018-08-23T17:16:21.168Z,169
2018-08-23T17:17:37.246Z,171
2018-08-23T17:18:53.220Z,173
2018-08-23T17:20:09.271Z,175
2018-08-23T17:21:25.186Z,177
2018-08-23T17:22:41.099Z,179
2018-08-23T17:23:57.057Z,184
2018-08-23T17:25:13.022Z,192
2018-08-23T17:26:28.944Z,207
2018-08-23T17:27:44.930Z,222
2018-08-23T17:29:00.890Z,246
2018-08-23T17:30:16.911Z,248
2018-08-23T17:31:32.858Z,244
2018-08-23T17:32:48.783Z,240
2018-08-23T17:34:04.766Z,240
2018-08-23T17:35:20.709Z,231
2018-08-23T17:36:36.692Z,223